createdAt,value
2018-09-24T00:00:32.446Z,1025.78
2018-09-24T00:01:32.507Z,1025.87
2018-09-24T00:02:32.659Z,1025.87
2018-09-24T00:03:32.623Z,1025.88
2018-09-24T00:04:32.630Z,1025.91
2018-09-24T00:05:32.764Z,1025.91
2018-09-24T00:06:32.364Z,1025.94
2018-09-24T00:07:32.565Z,1025.92
2018-09-24T00:08:32.686Z,1025.96
2018-09-24T00:09:32.547Z,1026.03
2018-09-24T00:10:32.622Z,1025.99
2018-09-24T00:11:32.621Z,1026.04
2018-09-24T00:12:32.490Z,1026.1
2018-09-24T00:13:32.590Z,1026.11
2018-09-24T00:14:32.668Z,1026.19
2018-09-24T00:15:32.802Z,1026.21
2018-09-24T00:16:32.424Z,1026.23
2018-09-24T00:17:32.769Z,1026.24
2018-09-24T00:18:32.650Z,1026.27
2018-09-24T00:19:32.600Z,1026.3
2018-09-24T00:20:32.406Z,1026.36
2018-09-24T00:21:32.563Z,1026.33
2018-09-24T00:22:32.354Z,1026.38
2018-09-24T00:23:32.454Z,1026.42
2018-09-24T00:24:32.406Z,1026.51
2018-09-24T00:25:32.583Z,1026.5
2018-09-24T00:26:32.545Z,1026.5
2018-09-24T00:27:32.361Z,1026.5
2018-09-24T00:28:32.659Z,1026.53
2018-09-24T00:29:32.567Z,1026.5
2018-09-24T00:30:32.533Z,1026.54
2018-09-24T00:31:32.542Z,1026.58
2018-09-24T00:32:32.360Z,1026.62
2018-09-24T00:33:32.582Z,1026.63
2018-09-24T00:34:32.330Z,1026.66
2018-09-24T00:35:32.560Z,1026.67
2018-09-24T00:36:32.789Z,1026.7
2018-09-24T00:37:32.460Z,1026.71
2018-09-24T00:38:32.815Z,1026.76
2018-09-24T00:39:32.535Z,1026.81
2018-09-24T00:40:32.627Z,1026.89
2018-09-24T00:41:32.445Z,1026.86
2018-09-24T00:42:32.808Z,1026.87
2018-09-24T00:43:32.921Z,1026.91
2018-09-24T00:44:32.531Z,1026.92
2018-09-24T00:45:32.645Z,1026.91
2018-09-24T00:46:32.564Z,1026.96
2018-09-24T00:47:32.674Z,1026.92
2018-09-24T00:48:32.733Z,1026.97
2018-09-24T00:49:32.351Z,1026.97
2018-09-24T00:50:32.778Z,1026.97
2018-09-24T00:51:32.781Z,1027.04
2018-09-24T00:52:32.478Z,1027.07
2018-09-24T00:53:32.769Z,1027.05
2018-09-24T00:54:32.788Z,1027.01
2018-09-24T00:55:32.606Z,1026.99
2018-09-24T00:56:32.738Z,1027
2018-09-24T00:57:32.624Z,1027.01
2018-09-24T00:58:32.301Z,1026.97
2018-09-24T00:59:32.554Z,1026.96
2018-09-24T01:00:32.809Z,1026.93
2018-09-24T01:01:32.569Z,1026.96
2018-09-24T01:02:32.629Z,1026.97
2018-09-24T01:03:32.440Z,1026.95
2018-09-24T01:04:32.760Z,1026.96
2018-09-24T01:05:32.852Z,1026.94
2018-09-24T01:06:32.399Z,1026.96
2018-09-24T01:07:32.583Z,1026.94
2018-09-24T01:08:32.647Z,1026.99
2018-09-24T01:09:32.703Z,1026.97
2018-09-24T01:10:32.534Z,1026.99
2018-09-24T01:11:32.619Z,1027
2018-09-24T01:12:32.705Z,1026.97
2018-09-24T01:13:32.443Z,1026.99
2018-09-24T01:14:32.727Z,1027.04
2018-09-24T01:15:32.876Z,1027.09
2018-09-24T01:16:32.620Z,1027.14
2018-09-24T01:17:32.339Z,1027.2
2018-09-24T01:18:32.586Z,1027.18
2018-09-24T01:19:32.568Z,1027.2
2018-09-24T01:20:33.090Z,1027.18
2018-09-24T01:21:32.788Z,1027.2
2018-09-24T01:22:32.580Z,1027.24
2018-09-24T01:23:32.691Z,1027.22
2018-09-24T01:24:32.667Z,1027.25
2018-09-24T01:25:32.367Z,1027.26
2018-09-24T01:26:32.813Z,1027.29
2018-09-24T01:27:32.570Z,1027.31
2018-09-24T01:28:32.639Z,1027.32
2018-09-24T01:29:32.788Z,1027.35
2018-09-24T01:30:32.431Z,1027.35
2018-09-24T01:31:32.754Z,1027.34
2018-09-24T01:32:32.435Z,1027.38
2018-09-24T01:33:33.035Z,1027.47
2018-09-24T01:34:32.902Z,1027.38
2018-09-24T01:35:32.743Z,1027.44
2018-09-24T01:36:32.431Z,1027.45
2018-09-24T01:37:32.686Z,1027.48
2018-09-24T01:38:32.714Z,1027.5
2018-09-24T01:39:32.698Z,1027.49
2018-09-24T01:40:32.559Z,1027.55
2018-09-24T01:41:32.755Z,1027.56
2018-09-24T01:42:32.602Z,1027.56
2018-09-24T01:43:32.485Z,1027.58
2018-09-24T01:44:32.487Z,1027.61
2018-09-24T01:45:32.950Z,1027.61
2018-09-24T01:46:32.853Z,1027.69
2018-09-24T01:47:32.410Z,1027.65
2018-09-24T01:48:32.408Z,1027.68
2018-09-24T01:49:32.605Z,1027.66
2018-09-24T01:50:32.569Z,1027.71
2018-09-24T01:51:32.642Z,1027.73
2018-09-24T01:52:32.372Z,1027.74
2018-09-24T01:53:32.513Z,1027.72
2018-09-24T01:54:32.513Z,1027.72
2018-09-24T01:55:32.261Z,1027.77
2018-09-24T01:56:32.632Z,1027.74
2018-09-24T01:57:32.453Z,1027.72
2018-09-24T01:58:32.567Z,1027.75
2018-09-24T01:59:32.518Z,1027.77
2018-09-24T02:00:32.507Z,1027.76
2018-09-24T02:01:32.434Z,1027.8
2018-09-24T02:02:32.286Z,1027.78
2018-09-24T02:03:32.881Z,1027.74
2018-09-24T02:04:32.508Z,1027.77
2018-09-24T02:05:32.579Z,1027.8
2018-09-24T02:06:32.553Z,1027.81
2018-09-24T02:07:32.607Z,1027.78
2018-09-24T02:08:32.593Z,1027.81
2018-09-24T02:09:32.441Z,1027.84
2018-09-24T02:10:32.432Z,1027.89
2018-09-24T02:11:32.465Z,1027.94
2018-09-24T02:12:32.496Z,1027.92
2018-09-24T02:13:32.535Z,1027.93
2018-09-24T02:14:32.537Z,1027.95
2018-09-24T02:15:32.679Z,1027.98
2018-09-24T02:16:32.594Z,1027.99
2018-09-24T02:17:32.360Z,1028.03
2018-09-24T02:18:32.612Z,1027.98
2018-09-24T02:19:32.780Z,1028.05
2018-09-24T02:20:32.588Z,1028.08
2018-09-24T02:21:32.718Z,1028.11
2018-09-24T02:22:32.285Z,1028.15
2018-09-24T02:23:32.404Z,1028.19
2018-09-24T02:24:32.792Z,1028.15
2018-09-24T02:25:32.624Z,1028.22
2018-09-24T02:26:32.407Z,1028.18
2018-09-24T02:27:32.826Z,1028.25
2018-09-24T02:28:32.661Z,1028.28
2018-09-24T02:29:32.416Z,1028.29
2018-09-24T02:30:32.652Z,1028.28
2018-09-24T02:31:32.293Z,1028.27
2018-09-24T02:32:32.342Z,1028.31
2018-09-24T02:33:32.674Z,1028.31
2018-09-24T02:34:32.561Z,1028.31
2018-09-24T02:35:32.522Z,1028.32
2018-09-24T02:36:32.348Z,1028.33
2018-09-24T02:37:32.715Z,1028.35
2018-09-24T02:38:32.510Z,1028.34
2018-09-24T02:39:32.335Z,1028.33
2018-09-24T02:40:32.408Z,1028.3
2018-09-24T02:41:32.523Z,1028.3
2018-09-24T02:42:32.346Z,1028.31
2018-09-24T02:43:32.553Z,1028.27
2018-09-24T02:44:32.697Z,1028.34
2018-09-24T02:45:32.663Z,1028.33
2018-09-24T02:46:32.466Z,1028.34
2018-09-24T02:47:32.391Z,1028.36
2018-09-24T02:48:32.497Z,1028.38
2018-09-24T02:49:32.407Z,1028.38
2018-09-24T02:50:32.712Z,1028.47
2018-09-24T02:51:32.395Z,1028.43
2018-09-24T02:52:32.603Z,1028.47
2018-09-24T02:53:32.630Z,1028.47
2018-09-24T02:54:32.537Z,1028.5
2018-09-24T02:55:32.646Z,1028.48
2018-09-24T02:56:32.397Z,1028.54
2018-09-24T02:57:32.861Z,1028.46
2018-09-24T02:58:32.865Z,1028.51
2018-09-24T02:59:32.545Z,1028.52
2018-09-24T03:00:32.520Z,1028.54
2018-09-24T03:01:32.371Z,1028.55
2018-09-24T03:02:32.517Z,1028.56
2018-09-24T03:03:32.940Z,1028.58
2018-09-24T03:04:32.738Z,1028.6
2018-09-24T03:05:32.417Z,1028.67
2018-09-24T03:06:32.643Z,1028.73
2018-09-24T03:07:32.353Z,1028.73
2018-09-24T03:08:32.353Z,1028.78
2018-09-24T03:09:32.451Z,1028.78
2018-09-24T03:10:32.266Z,1028.83
2018-09-24T03:11:32.327Z,1028.85
2018-09-24T03:12:32.592Z,1028.89
2018-09-24T03:13:32.265Z,1028.9
2018-09-24T03:14:32.372Z,1028.89
2018-09-24T03:15:32.361Z,1028.94
2018-09-24T03:16:32.574Z,1029.01
2018-09-24T03:17:32.483Z,1028.98
2018-09-24T03:18:32.365Z,1028.96
2018-09-24T03:19:32.574Z,1029
2018-09-24T03:20:32.356Z,1028.99
2018-09-24T03:21:32.468Z,1029.03
2018-09-24T03:22:32.527Z,1029
2018-09-24T03:23:32.376Z,1029.01
2018-09-24T03:24:32.411Z,1029.02
2018-09-24T03:25:32.394Z,1029.05
2018-09-24T03:26:32.487Z,1029.03
2018-09-24T03:27:32.571Z,1029.01
2018-09-24T03:28:32.319Z,1029.07
2018-09-24T03:29:32.264Z,1029.07
2018-09-24T03:30:32.674Z,1029.1
2018-09-24T03:31:32.517Z,1029.1
2018-09-24T03:32:32.751Z,1029.12
2018-09-24T03:33:32.703Z,1029.15
2018-09-24T03:34:33.011Z,1029.11
2018-09-24T03:35:32.530Z,1029.12
2018-09-24T03:36:32.628Z,1029.17
2018-09-24T03:37:32.664Z,1029.12
2018-09-24T03:38:32.429Z,1029.14
2018-09-24T03:39:32.404Z,1029.11
2018-09-24T03:40:32.334Z,1029.1
2018-09-24T03:41:32.745Z,1029.16
2018-09-24T03:42:32.262Z,1029.1
2018-09-24T03:43:32.786Z,1029.13
2018-09-24T03:44:32.668Z,1029.15
2018-09-24T03:45:32.448Z,1029.16
2018-09-24T03:46:32.576Z,1029.16
2018-09-24T03:47:32.538Z,1029.15
2018-09-24T03:48:32.512Z,1029.18
2018-09-24T03:49:32.394Z,1029.17
2018-09-24T03:50:32.341Z,1029.2
2018-09-24T03:51:32.259Z,1029.23
2018-09-24T03:52:32.312Z,1029.17
2018-09-24T03:53:32.293Z,1029.21
2018-09-24T03:54:32.327Z,1029.21
2018-09-24T03:55:32.582Z,1029.28
2018-09-24T03:56:32.509Z,1029.26
2018-09-24T03:57:32.336Z,1029.29
2018-09-24T03:58:32.658Z,1029.33
2018-09-24T03:59:32.356Z,1029.36
2018-09-24T04:00:32.439Z,1029.41
2018-09-24T04:01:32.420Z,1029.41
2018-09-24T04:02:32.312Z,1029.38
2018-09-24T04:03:32.722Z,1029.43
2018-09-24T04:04:32.517Z,1029.42
2018-09-24T04:05:32.567Z,1029.52
2018-09-24T04:06:32.436Z,1029.52
2018-09-24T04:07:32.263Z,1029.49
2018-09-24T04:08:32.499Z,1029.54
2018-09-24T04:09:32.909Z,1029.6
2018-09-24T04:10:32.513Z,1029.59
2018-09-24T04:11:32.414Z,1029.66
2018-09-24T04:12:32.706Z,1029.67
2018-09-24T04:13:32.365Z,1029.75
2018-09-24T04:14:32.671Z,1029.78
2018-09-24T04:15:32.497Z,1029.83
2018-09-24T04:16:32.708Z,1029.82
2018-09-24T04:17:32.744Z,1029.86
2018-09-24T04:18:32.450Z,1029.83
2018-09-24T04:19:33.267Z,1029.88
2018-09-24T04:20:32.621Z,1029.89
2018-09-24T04:21:32.398Z,1029.91
2018-09-24T04:22:32.386Z,1029.93
2018-09-24T04:23:32.578Z,1029.91
2018-09-24T04:24:32.658Z,1029.92
2018-09-24T04:25:32.283Z,1029.97
2018-09-24T04:26:32.683Z,1029.97
2018-09-24T04:27:32.679Z,1029.96
2018-09-24T04:28:32.365Z,1029.94
2018-09-24T04:29:32.347Z,1029.98
2018-09-24T04:30:32.504Z,1030.01
2018-09-24T04:31:32.436Z,1030
2018-09-24T04:32:32.337Z,1030.02
2018-09-24T04:33:32.313Z,1030.04
2018-09-24T04:34:32.483Z,1030.04
2018-09-24T04:35:32.284Z,1030.08
2018-09-24T04:36:32.526Z,1030.06
2018-09-24T04:37:32.453Z,1030.09
2018-09-24T04:38:32.260Z,1030.14
2018-09-24T04:39:32.756Z,1030.17
2018-09-24T04:40:32.572Z,1030.16
2018-09-24T04:41:32.501Z,1030.2
2018-09-24T04:42:32.427Z,1030.24
2018-09-24T04:43:32.544Z,1030.22
2018-09-24T04:44:32.570Z,1030.22
2018-09-24T04:45:32.463Z,1030.28
2018-09-24T04:46:32.611Z,1030.22
2018-09-24T04:47:32.393Z,1030.22
2018-09-24T04:48:32.298Z,1030.23
2018-09-24T04:49:32.395Z,1030.28
2018-09-24T04:50:32.419Z,1030.26
2018-09-24T04:51:32.594Z,1030.27
2018-09-24T04:52:32.596Z,1030.28
2018-09-24T04:53:32.748Z,1030.29
2018-09-24T04:54:32.227Z,1030.27
2018-09-24T04:55:32.521Z,1030.35
2018-09-24T04:56:32.278Z,1030.37
2018-09-24T04:57:32.394Z,1030.42
2018-09-24T04:58:32.920Z,1030.45
2018-09-24T04:59:32.292Z,1030.48
2018-09-24T05:00:32.284Z,1030.47
2018-09-24T05:01:32.675Z,1030.5
2018-09-24T05:02:32.382Z,1030.54
2018-09-24T05:03:32.739Z,1030.57
2018-09-24T05:04:32.393Z,1030.59
2018-09-24T05:05:32.399Z,1030.66
2018-09-24T05:06:32.323Z,1030.65
2018-09-24T05:07:32.725Z,1030.65
2018-09-24T05:08:32.725Z,1030.74
2018-09-24T05:09:32.631Z,1030.74
2018-09-24T05:10:32.670Z,1030.78
2018-09-24T05:11:32.288Z,1030.8
2018-09-24T05:12:32.265Z,1030.84
2018-09-24T05:13:32.589Z,1030.87
2018-09-24T05:14:32.525Z,1030.84
2018-09-24T05:15:32.476Z,1030.85
2018-09-24T05:16:32.507Z,1030.85
2018-09-24T05:17:32.424Z,1030.91
2018-09-24T05:18:32.528Z,1030.83
2018-09-24T05:19:32.296Z,1030.85
2018-09-24T05:20:32.346Z,1030.93
2018-09-24T05:21:32.338Z,1030.89
2018-09-24T05:22:32.237Z,1030.89
2018-09-24T05:23:32.375Z,1030.96
2018-09-24T05:24:32.227Z,1030.99
2018-09-24T05:25:32.393Z,1031.04
2018-09-24T05:26:32.417Z,1031.01
2018-09-24T05:27:32.386Z,1031.04
2018-09-24T05:28:32.399Z,1031.02
2018-09-24T05:29:32.629Z,1031.03
2018-09-24T05:30:32.645Z,1031.05
2018-09-24T05:31:32.368Z,1031.08
2018-09-24T05:32:32.871Z,1031.12
2018-09-24T05:33:32.400Z,1031.08
2018-09-24T05:34:33.167Z,1031.11
2018-09-24T05:35:32.582Z,1031.11
2018-09-24T05:36:32.694Z,1031.15
2018-09-24T05:37:32.805Z,1031.13
2018-09-24T05:38:32.280Z,1031.16
2018-09-24T05:39:32.313Z,1031.18
2018-09-24T05:40:32.405Z,1031.14
2018-09-24T05:41:32.696Z,1031.2
2018-09-24T05:42:32.353Z,1031.19
2018-09-24T05:43:32.473Z,1031.24
2018-09-24T05:44:32.513Z,1031.23
2018-09-24T05:45:32.499Z,1031.27
2018-09-24T05:46:32.313Z,1031.3
2018-09-24T05:47:32.336Z,1031.31
2018-09-24T05:48:33.392Z,1031.32
2018-09-24T05:49:32.363Z,1031.37
2018-09-24T05:50:32.473Z,1031.39
2018-09-24T05:51:32.368Z,1031.41
2018-09-24T05:52:32.924Z,1031.45
2018-09-24T05:53:32.344Z,1031.41
2018-09-24T05:54:32.569Z,1031.48
2018-09-24T05:55:32.323Z,1031.51
2018-09-24T05:56:32.432Z,1031.52
2018-09-24T05:57:32.286Z,1031.54
2018-09-24T05:58:32.685Z,1031.59
2018-09-24T05:59:32.316Z,1031.58
2018-09-24T06:00:32.226Z,1031.62
2018-09-24T06:01:32.442Z,1031.65
2018-09-24T06:02:32.470Z,1031.65
2018-09-24T06:03:32.383Z,1031.66
2018-09-24T06:04:32.233Z,1031.71
2018-09-24T06:05:32.515Z,1031.72
2018-09-24T06:06:32.127Z,1031.7
2018-09-24T06:07:32.308Z,1031.71
2018-09-24T06:08:32.266Z,1031.71
2018-09-24T06:09:32.350Z,1031.69
2018-09-24T06:10:32.201Z,1031.76
2018-09-24T06:11:32.481Z,1031.76
2018-09-24T06:12:33.227Z,1031.77
2018-09-24T06:13:32.662Z,1031.81
2018-09-24T06:14:32.221Z,1031.83
2018-09-24T06:15:32.308Z,1031.8
2018-09-24T06:16:32.157Z,1031.84
2018-09-24T06:17:32.469Z,1031.83
2018-09-24T06:18:32.229Z,1031.85
2018-09-24T06:19:32.339Z,1031.81
2018-09-24T06:20:32.145Z,1031.84
2018-09-24T06:21:32.484Z,1031.88
2018-09-24T06:22:32.265Z,1031.87
2018-09-24T06:23:32.908Z,1031.89
2018-09-24T06:24:32.183Z,1031.88
2018-09-24T06:25:32.714Z,1031.93
2018-09-24T06:26:32.447Z,1031.96
2018-09-24T06:27:32.292Z,1031.98
2018-09-24T06:28:32.799Z,1031.99
2018-09-24T06:29:32.330Z,1031.98
2018-09-24T06:30:32.180Z,1031.97
2018-09-24T06:31:32.738Z,1032.02
2018-09-24T06:32:32.362Z,1032.03
2018-09-24T06:33:32.579Z,1032.04
2018-09-24T06:34:32.227Z,1032.08
2018-09-24T06:35:32.445Z,1032.06
2018-09-24T06:36:32.299Z,1032.08
2018-09-24T06:37:32.357Z,1032.08
2018-09-24T06:38:32.270Z,1032.12
2018-09-24T06:39:32.279Z,1032.15
2018-09-24T06:40:32.236Z,1032.14
2018-09-24T06:41:32.425Z,1032.14
2018-09-24T06:42:32.116Z,1032.22
2018-09-24T06:43:32.301Z,1032.21
2018-09-24T06:44:32.568Z,1032.25
2018-09-24T06:45:32.405Z,1032.21
2018-09-24T06:46:32.900Z,1032.29
2018-09-24T06:47:32.343Z,1032.29
2018-09-24T06:48:32.134Z,1032.31
2018-09-24T06:49:32.717Z,1032.33
2018-09-24T06:50:32.131Z,1032.38
2018-09-24T06:51:32.358Z,1032.35
2018-09-24T06:52:32.201Z,1032.4
2018-09-24T06:53:32.654Z,1032.41
2018-09-24T06:54:32.279Z,1032.46
2018-09-24T06:55:32.360Z,1032.46
2018-09-24T06:56:32.462Z,1032.43
2018-09-24T06:57:32.355Z,1032.47
2018-09-24T06:58:32.480Z,1032.5
2018-09-24T06:59:32.576Z,1032.5
2018-09-24T07:00:32.300Z,1032.53
2018-09-24T07:01:32.412Z,1032.55
2018-09-24T07:02:32.362Z,1032.53
2018-09-24T07:03:32.651Z,1032.54
2018-09-24T07:04:32.247Z,1032.58
2018-09-24T07:05:32.795Z,1032.55
2018-09-24T07:06:32.197Z,1032.65
2018-09-24T07:07:32.425Z,1032.64
2018-09-24T07:08:32.340Z,1032.66
2018-09-24T07:09:32.580Z,1032.66
2018-09-24T07:10:32.640Z,1032.69
2018-09-24T07:11:32.394Z,1032.66
2018-09-24T07:12:32.259Z,1032.67
2018-09-24T07:13:32.421Z,1032.71
2018-09-24T07:14:32.188Z,1032.73
2018-09-24T07:15:32.347Z,1032.74
2018-09-24T07:16:32.422Z,1032.74
2018-09-24T07:17:32.597Z,1032.82
2018-09-24T07:18:32.797Z,1032.79
2018-09-24T07:19:32.553Z,1032.84
2018-09-24T07:20:32.460Z,1032.84
2018-09-24T07:21:32.891Z,1032.86
2018-09-24T07:22:32.294Z,1032.86
2018-09-24T07:23:32.474Z,1032.86
2018-09-24T07:24:32.266Z,1032.9
2018-09-24T07:25:32.334Z,1032.94
2018-09-24T07:26:32.692Z,1032.92
2018-09-24T07:27:32.515Z,1032.95
2018-09-24T07:28:32.578Z,1032.97
2018-09-24T07:29:32.446Z,1032.98
2018-09-24T07:30:32.397Z,1032.96
2018-09-24T07:31:32.630Z,1032.98
2018-09-24T07:32:32.272Z,1033.01
2018-09-24T07:33:32.275Z,1033.01
2018-09-24T07:34:32.266Z,1033.02
2018-09-24T07:35:32.472Z,1032.99
2018-09-24T07:36:32.245Z,1033.08
2018-09-24T07:37:32.450Z,1033.08
2018-09-24T07:38:33.557Z,1033.02
2018-09-24T07:39:32.448Z,1033.11
2018-09-24T07:40:32.255Z,1033.12
2018-09-24T07:41:32.358Z,1033.12
2018-09-24T07:42:32.323Z,1033.13
2018-09-24T07:43:32.929Z,1033.15
2018-09-24T07:44:32.126Z,1033.17
2018-09-24T07:45:32.412Z,1033.2
2018-09-24T07:46:32.237Z,1033.22
2018-09-24T07:47:32.532Z,1033.25
2018-09-24T07:48:32.290Z,1033.29
2018-09-24T07:49:32.819Z,1033.26
2018-09-24T07:50:32.434Z,1033.29
2018-09-24T07:51:32.525Z,1033.32
2018-09-24T07:52:32.442Z,1033.34
2018-09-24T07:53:32.371Z,1033.35
2018-09-24T07:54:32.532Z,1033.36
2018-09-24T07:55:32.645Z,1033.35
2018-09-24T07:56:32.309Z,1033.39
2018-09-24T07:57:32.512Z,1033.38
2018-09-24T07:58:32.553Z,1033.41
2018-09-24T07:59:32.769Z,1033.4
2018-09-24T08:00:32.235Z,1033.45
2018-09-24T08:01:32.499Z,1033.4
2018-09-24T08:02:32.376Z,1033.41
2018-09-24T08:03:32.508Z,1033.42
2018-09-24T08:04:32.576Z,1033.41
2018-09-24T08:05:32.518Z,1033.46
2018-09-24T08:06:32.883Z,1033.53
2018-09-24T08:07:32.715Z,1033.53
2018-09-24T08:08:32.300Z,1033.61
2018-09-24T08:09:32.741Z,1033.63
2018-09-24T08:10:32.625Z,1033.64
2018-09-24T08:11:32.601Z,1033.64
2018-09-24T08:12:32.401Z,1033.68
2018-09-24T08:13:32.453Z,1033.69
2018-09-24T08:14:32.473Z,1033.69
2018-09-24T08:15:32.552Z,1033.71
2018-09-24T08:16:32.582Z,1033.71
2018-09-24T08:17:32.527Z,1033.7
2018-09-24T08:18:32.237Z,1033.72
2018-09-24T08:19:32.515Z,1033.76
2018-09-24T08:20:32.304Z,1033.81
2018-09-24T08:21:32.758Z,1033.82
2018-09-24T08:22:32.336Z,1033.86
2018-09-24T08:23:32.303Z,1033.87
2018-09-24T08:24:32.330Z,1033.92
2018-09-24T08:25:32.405Z,1033.92
2018-09-24T08:26:32.263Z,1033.88
2018-09-24T08:27:32.790Z,1033.91
2018-09-24T08:28:32.684Z,1033.89
2018-09-24T08:29:32.446Z,1033.87
2018-09-24T08:30:32.373Z,1033.86
2018-09-24T08:31:32.819Z,1033.85
2018-09-24T08:32:32.358Z,1033.88
2018-09-24T08:33:32.432Z,1033.86
2018-09-24T08:34:32.187Z,1033.87
2018-09-24T08:35:32.610Z,1033.85
2018-09-24T08:36:32.335Z,1033.84
2018-09-24T08:37:32.607Z,1033.9
2018-09-24T08:38:32.274Z,1033.87
2018-09-24T08:39:32.661Z,1033.89
2018-09-24T08:40:32.291Z,1033.87
2018-09-24T08:41:32.777Z,1033.89
2018-09-24T08:42:32.152Z,1033.94
2018-09-24T08:43:32.754Z,1033.9
2018-09-24T08:44:32.281Z,1034.01
2018-09-24T08:45:32.552Z,1034
2018-09-24T08:46:32.238Z,1034.02
2018-09-24T08:47:32.186Z,1034.07
2018-09-24T08:48:32.246Z,1034.07
2018-09-24T08:49:32.462Z,1034.07
2018-09-24T08:50:32.767Z,1034.07
2018-09-24T08:51:32.268Z,1034.1
2018-09-24T08:52:32.399Z,1034.09
2018-09-24T08:53:32.520Z,1034.05
2018-09-24T08:54:32.344Z,1034.05
2018-09-24T08:55:32.322Z,1034.12
2018-09-24T08:56:32.502Z,1034.08
2018-09-24T08:57:32.432Z,1034.15
2018-09-24T08:58:32.626Z,1034.15
2018-09-24T08:59:32.671Z,1034.16
2018-09-24T09:00:32.468Z,1034.13
2018-09-24T09:01:32.475Z,1034.13
2018-09-24T09:02:32.672Z,1034.13
2018-09-24T09:03:32.341Z,1034.09
2018-09-24T09:04:32.258Z,1034.12
2018-09-24T09:05:32.319Z,1034.13
2018-09-24T09:06:32.275Z,1034.08
2018-09-24T09:07:32.471Z,1034.08
2018-09-24T09:08:32.467Z,1034.08
2018-09-24T09:09:32.394Z,1034.13
2018-09-24T09:10:32.253Z,1034.11
2018-09-24T09:11:32.467Z,1034.13
2018-09-24T09:12:32.231Z,1034.08
2018-09-24T09:13:32.354Z,1034.02
2018-09-24T09:14:32.311Z,1034.07
2018-09-24T09:15:32.415Z,1034.09
2018-09-24T09:16:32.426Z,1034.14
2018-09-24T09:17:32.243Z,1034.11
2018-09-24T09:18:32.295Z,1034.16
2018-09-24T09:19:32.251Z,1034.14
2018-09-24T09:20:32.556Z,1034.14
2018-09-24T09:21:32.888Z,1034.09
2018-09-24T09:22:32.468Z,1034.11
2018-09-24T09:23:32.399Z,1034.14
2018-09-24T09:24:32.466Z,1034.11
2018-09-24T09:25:32.318Z,1034.14
2018-09-24T09:26:32.544Z,1034.16
2018-09-24T09:27:32.337Z,1034.17
2018-09-24T09:28:32.780Z,1034.21
2018-09-24T09:29:32.653Z,1034.2
2018-09-24T09:30:32.314Z,1034.19
2018-09-24T09:31:32.565Z,1034.16
2018-09-24T09:32:33.353Z,1034.16
2018-09-24T09:33:32.424Z,1034.17
2018-09-24T09:34:32.765Z,1034.16
2018-09-24T09:35:32.408Z,1034.16
2018-09-24T09:36:32.304Z,1034.15
2018-09-24T09:37:32.364Z,1034.2
2018-09-24T09:38:32.237Z,1034.21
2018-09-24T09:39:32.771Z,1034.24
2018-09-24T09:40:32.557Z,1034.22
2018-09-24T09:41:32.367Z,1034.19
2018-09-24T09:42:32.410Z,1034.19
2018-09-24T09:43:32.608Z,1034.18
2018-09-24T09:44:32.322Z,1034.19
2018-09-24T09:45:32.418Z,1034.22
2018-09-24T09:46:32.640Z,1034.21
2018-09-24T09:47:32.446Z,1034.19
2018-09-24T09:48:32.551Z,1034.19
2018-09-24T09:49:32.330Z,1034.15
2018-09-24T09:50:32.299Z,1034.11
2018-09-24T09:51:32.417Z,1034.08
2018-09-24T09:52:32.337Z,1034.11
2018-09-24T09:53:32.651Z,1034.09
2018-09-24T09:54:32.471Z,1034.09
2018-09-24T09:55:32.320Z,1034.09
2018-09-24T09:56:32.200Z,1034.04
2018-09-24T09:57:32.916Z,1034.03
2018-09-24T09:58:32.651Z,1033.99
2018-09-24T09:59:32.579Z,1033.96
2018-09-24T10:00:32.933Z,1034.03
2018-09-24T10:01:32.719Z,1034.01
2018-09-24T10:02:32.223Z,1034.06
2018-09-24T10:03:32.343Z,1034.05
2018-09-24T10:04:32.421Z,1034.09
2018-09-24T10:05:32.236Z,1034.11
2018-09-24T10:06:32.905Z,1034.08
2018-09-24T10:07:32.320Z,1034.05
2018-09-24T10:08:32.585Z,1034.04
2018-09-24T10:09:32.429Z,1034.05
2018-09-24T10:10:32.842Z,1034.06
2018-09-24T10:11:32.419Z,1034.04
2018-09-24T10:12:32.451Z,1034.08
2018-09-24T10:13:32.603Z,1034.06
2018-09-24T10:14:32.290Z,1034.14
2018-09-24T10:15:32.670Z,1034.06
2018-09-24T10:16:32.308Z,1034.06
2018-09-24T10:17:32.822Z,1034.12
2018-09-24T10:18:32.636Z,1034.12
2018-09-24T10:19:32.349Z,1034.15
2018-09-24T10:20:32.221Z,1034.19
2018-09-24T10:21:32.453Z,1034.2
2018-09-24T10:22:32.804Z,1034.18
2018-09-24T10:23:32.321Z,1034.2
2018-09-24T10:24:32.493Z,1034.21
2018-09-24T10:25:32.311Z,1034.18
2018-09-24T10:26:32.468Z,1034.24
2018-09-24T10:27:32.409Z,1034.22
2018-09-24T10:28:32.380Z,1034.21
2018-09-24T10:29:32.618Z,1034.23
2018-09-24T10:30:33.137Z,1034.2
2018-09-24T10:31:32.557Z,1034.25
2018-09-24T10:32:32.257Z,1034.23
2018-09-24T10:33:32.863Z,1034.26
2018-09-24T10:34:32.447Z,1034.26
2018-09-24T10:35:32.511Z,1034.23
2018-09-24T10:36:32.386Z,1034.3
2018-09-24T10:37:32.603Z,1034.25
2018-09-24T10:38:32.297Z,1034.29
2018-09-24T10:39:32.761Z,1034.29
2018-09-24T10:40:32.302Z,1034.31
2018-09-24T10:41:32.343Z,1034.29
2018-09-24T10:42:32.426Z,1034.32
2018-09-24T10:43:32.378Z,1034.31
2018-09-24T10:44:32.367Z,1034.31
2018-09-24T10:45:32.231Z,1034.3
2018-09-24T10:46:32.286Z,1034.31
2018-09-24T10:47:32.236Z,1034.31
2018-09-24T10:48:32.457Z,1034.3
2018-09-24T10:49:32.299Z,1034.24
2018-09-24T10:50:32.411Z,1034.26
2018-09-24T10:51:32.375Z,1034.19
2018-09-24T10:52:32.347Z,1034.22
2018-09-24T10:53:32.464Z,1034.21
2018-09-24T10:54:32.360Z,1034.21
2018-09-24T10:55:32.357Z,1034.17
2018-09-24T10:56:32.481Z,1034.22
2018-09-24T10:57:32.411Z,1034.24
2018-09-24T10:58:32.253Z,1034.23
2018-09-24T10:59:32.894Z,1034.19
2018-09-24T11:00:32.301Z,1034.12
2018-09-24T11:01:32.418Z,1034.18
2018-09-24T11:02:32.675Z,1034.17
2018-09-24T11:03:32.763Z,1034.15
2018-09-24T11:04:32.459Z,1034.18
2018-09-24T11:05:32.476Z,1034.22
2018-09-24T11:06:32.253Z,1034.18
2018-09-24T11:07:32.568Z,1034.24
2018-09-24T11:08:32.471Z,1034.21
2018-09-24T11:09:32.527Z,1034.22
2018-09-24T11:10:32.566Z,1034.22
2018-09-24T11:11:32.151Z,1034.25
2018-09-24T11:12:32.525Z,1034.27
2018-09-24T11:13:32.423Z,1034.23
2018-09-24T11:14:32.505Z,1034.24
2018-09-24T11:15:32.366Z,1034.25
2018-09-24T11:16:33.111Z,1034.24
2018-09-24T11:17:33.528Z,1034.19
2018-09-24T11:18:32.463Z,1034.19
2018-09-24T11:19:32.957Z,1034.22
2018-09-24T11:20:32.209Z,1034.21
2018-09-24T11:21:32.789Z,1034.21
2018-09-24T11:22:32.394Z,1034.16
2018-09-24T11:23:32.682Z,1034.2
2018-09-24T11:24:32.508Z,1034.2
2018-09-24T11:25:32.346Z,1034.19
2018-09-24T11:27:32.265Z,1034.19
2018-09-24T11:28:32.830Z,1034.18
2018-09-24T11:29:32.843Z,1034.2
2018-09-24T11:30:32.547Z,1034.21
2018-09-24T11:31:32.438Z,1034.16
2018-09-24T11:32:32.493Z,1034.14
2018-09-24T11:33:32.776Z,1034.12
2018-09-24T11:34:32.295Z,1034.1
2018-09-24T11:35:32.348Z,1034.08
2018-09-24T11:36:32.367Z,1034.06
2018-09-24T11:37:32.877Z,1034.06
2018-09-24T11:38:32.494Z,1034.12
2018-09-24T11:39:32.207Z,1034.02
2018-09-24T11:40:32.261Z,1034.06
2018-09-24T11:41:32.420Z,1034.05
2018-09-24T11:42:33.435Z,1034.04
2018-09-24T11:43:32.200Z,1034.04
2018-09-24T11:44:32.328Z,1034
2018-09-24T11:45:32.396Z,1034
2018-09-24T11:46:32.911Z,1034.01
2018-09-24T11:47:32.564Z,1034.04
2018-09-24T11:48:32.428Z,1033.99
2018-09-24T11:49:32.167Z,1033.98
2018-09-24T11:50:32.373Z,1033.97
2018-09-24T11:51:32.472Z,1034.03
2018-09-24T11:52:32.248Z,1033.99
2018-09-24T11:53:32.701Z,1034
2018-09-24T11:54:32.555Z,1033.98
2018-09-24T11:55:32.569Z,1033.94
2018-09-24T11:56:32.823Z,1033.94
2018-09-24T11:57:33.357Z,1033.94
2018-09-24T11:58:32.822Z,1033.91
2018-09-24T11:59:33.425Z,1033.88
2018-09-24T12:00:32.243Z,1033.83
2018-09-24T12:01:32.345Z,1033.86
2018-09-24T12:02:32.585Z,1033.88
2018-09-24T12:03:32.614Z,1033.84
2018-09-24T12:04:32.535Z,1033.86
2018-09-24T12:05:32.331Z,1033.81
2018-09-24T12:06:32.293Z,1033.78
2018-09-24T12:07:32.193Z,1033.82
2018-09-24T12:08:32.174Z,1033.81
2018-09-24T12:09:32.401Z,1033.76